createdAt,value
2019-05-03T00:02:06.944Z,2.20
2019-05-03T00:04:34.508Z,2.50
2019-05-03T00:07:02.718Z,2.12
2019-05-03T00:09:31.916Z,3.30
2019-05-03T00:11:58.920Z,4.00
2019-05-03T00:14:26.494Z,4.50
2019-05-03T00:16:54.031Z,4.90
2019-05-03T00:19:21.965Z,4.90
2019-05-03T00:21:49.310Z,3.62
2019-05-03T00:24:16.886Z,4.30
2019-05-03T00:26:44.160Z,3.10
2019-05-03T00:29:12.727Z,4.05
2019-05-03T00:31:40.027Z,4.37
2019-05-03T00:34:08.964Z,5.97
2019-05-03T00:36:44.124Z,5.20
2019-05-03T00:39:12.993Z,5.45
2019-05-03T00:41:40.192Z,8.08
2019-05-03T00:44:07.417Z,6.60
2019-05-03T00:46:34.621Z,4.85
2019-05-03T00:49:03.674Z,3.60
2019-05-03T00:51:31.785Z,6.28
2019-05-03T00:53:59.123Z,3.47
2019-05-03T00:56:26.320Z,5.47
2019-05-03T00:58:55.436Z,4.67
2019-05-03T01:01:22.704Z,3.75
2019-05-03T01:03:49.929Z,3.75
2019-05-03T01:06:17.412Z,2.50
2019-05-03T01:08:44.605Z,1.90
2019-05-03T01:11:12.658Z,2.67
2019-05-03T01:13:39.905Z,2.30
2019-05-03T01:16:11.828Z,1.80
2019-05-03T01:18:39.079Z,1.40
2019-05-03T01:21:06.317Z,2.10
2019-05-03T01:23:33.584Z,1.60
2019-05-03T01:26:02.496Z,1.90
2019-05-03T01:28:29.880Z,2.55
2019-05-03T01:30:57.630Z,1.77
2019-05-03T01:33:24.890Z,2.12
2019-05-03T01:35:52.167Z,2.55
2019-05-03T01:38:19.608Z,4.28
2019-05-03T01:40:47.129Z,2.42
2019-05-03T01:43:14.332Z,2.20
2019-05-03T01:45:42.455Z,1.60
2019-05-03T01:48:14.399Z,1.50
2019-05-03T01:50:46.416Z,1.40
2019-05-03T01:53:15.320Z,1.15
2019-05-03T01:55:52.427Z,1.62
2019-05-03T01:58:21.685Z,1.50
2019-05-03T02:00:51.910Z,1.10
2019-05-03T02:03:37.093Z,1.42
2019-05-03T02:06:04.550Z,1.00
2019-05-03T02:08:32.655Z,1.25
2019-05-03T02:11:02.080Z,1.70
2019-05-03T02:13:29.469Z,1.10
2019-05-03T02:15:56.665Z,1.20
2019-05-03T02:18:23.980Z,1.20
2019-05-03T02:20:52.547Z,0.88
2019-05-03T02:23:19.861Z,1.25
2019-05-03T02:25:55.984Z,1.00
2019-05-03T02:28:16.009Z,1.00
2019-05-03T02:30:44.310Z,1.17
2019-05-03T02:33:13.421Z,1.00
2019-05-03T02:35:42.973Z,1.10
2019-05-03T02:38:12.780Z,0.82
2019-05-03T02:40:38.960Z,0.75
2019-05-03T02:43:10.712Z,0.60
2019-05-03T02:45:57.992Z,0.50
2019-05-03T02:48:32.628Z,0.60
2019-05-03T02:50:59.952Z,0.60
2019-05-03T02:53:27.197Z,0.65
2019-05-03T02:55:56.147Z,0.60
2019-05-03T02:58:25.317Z,0.62
2019-05-03T03:01:02.060Z,0.88
2019-05-03T03:03:29.396Z,1.00
2019-05-03T03:05:57.290Z,1.12
2019-05-03T03:08:26.302Z,0.70
2019-05-03T03:10:55.583Z,1.42
2019-05-03T03:13:22.573Z,1.30
2019-05-03T03:15:50.844Z,1.32
2019-05-03T03:18:18.041Z,0.82
2019-05-03T03:20:45.308Z,1.00
2019-05-03T03:23:15.344Z,1.50
2019-05-03T03:25:43.026Z,1.37
2019-05-03T03:28:11.275Z,1.00
2019-05-03T03:30:42.870Z,1.07
2019-05-03T03:33:11.768Z,1.37
2019-05-03T03:35:40.293Z,1.40
2019-05-03T03:38:07.524Z,3.12
2019-05-03T03:40:35.785Z,2.98
2019-05-03T03:43:05.326Z,1.80
2019-05-03T03:45:32.200Z,1.77
2019-05-03T03:47:59.866Z,2.50
2019-05-03T03:50:27.129Z,1.95
2019-05-03T03:52:55.833Z,2.17
2019-05-03T03:55:26.169Z,1.70
2019-05-03T03:57:52.382Z,1.70
2019-05-03T04:00:19.681Z,1.90
2019-05-03T04:02:46.881Z,1.47
2019-05-03T04:05:15.906Z,3.15
2019-05-03T04:07:43.013Z,1.95
2019-05-03T04:10:10.492Z,1.67
2019-05-03T04:12:37.926Z,1.62
2019-05-03T04:15:21.604Z,2.25
2019-05-03T04:17:50.433Z,3.90
2019-05-03T04:20:19.366Z,2.93
2019-05-03T04:22:46.633Z,2.20
2019-05-03T04:25:15.473Z,2.47
2019-05-03T04:27:45.338Z,2.70
2019-05-03T04:30:11.852Z,2.75
2019-05-03T04:32:39.050Z,2.40
2019-05-03T04:35:06.546Z,2.00
2019-05-03T04:37:35.947Z,2.27
2019-05-03T04:40:02.926Z,2.02
2019-05-03T04:42:30.352Z,1.70
2019-05-03T04:44:57.555Z,1.32
2019-05-03T04:47:26.313Z,1.20
2019-05-03T04:49:55.531Z,1.80
2019-05-03T04:52:25.531Z,1.30
2019-05-03T04:54:56.394Z,1.30
2019-05-03T04:57:39.271Z,1.17
2019-05-03T04:59:55.844Z,1.30
2019-05-03T05:02:21.873Z,1.40
2019-05-03T05:04:49.160Z,1.57
2019-05-03T05:07:16.401Z,2.12
2019-05-03T05:09:45.595Z,1.50
2019-05-03T05:12:12.701Z,1.65
2019-05-03T05:14:39.993Z,1.22
2019-05-03T05:17:08.243Z,1.10
2019-05-03T05:19:40.265Z,1.10
2019-05-03T05:22:15.515Z,1.73
2019-05-03T05:24:44.852Z,1.32
2019-05-03T05:27:16.449Z,1.85
2019-05-03T05:29:45.017Z,1.45
2019-05-03T05:32:14.376Z,2.37
2019-05-03T05:34:41.632Z,1.85
2019-05-03T05:37:08.998Z,1.92
2019-05-03T05:39:36.265Z,2.80
2019-05-03T05:42:06.476Z,2.15
2019-05-03T05:44:35.195Z,2.80
2019-05-03T05:47:10.352Z,3.00
2019-05-03T05:49:54.657Z,2.00
2019-05-03T05:52:24.399Z,1.10
2019-05-03T05:55:11.033Z,3.92
2019-05-03T05:57:39.939Z,3.65
2019-05-03T06:00:08.845Z,3.40
2019-05-03T06:02:36.113Z,4.70
2019-05-03T06:05:04.862Z,4.87
2019-05-03T06:07:35.124Z,4.37
2019-05-03T06:10:05.234Z,4.70
2019-05-03T06:12:37.404Z,3.00
2019-05-03T06:15:07.805Z,4.95
2019-05-03T06:17:36.708Z,5.87
2019-05-03T06:20:10.070Z,6.40
2019-05-03T06:22:44.850Z,6.40
2019-05-03T06:25:16.865Z,5.78
2019-05-03T06:27:44.937Z,5.03
2019-05-03T06:30:17.161Z,3.93
2019-05-03T06:32:44.893Z,3.53
2019-05-03T06:35:12.133Z,4.10
2019-05-03T06:37:45.679Z,3.65
2019-05-03T06:42:51.631Z,3.75
2019-05-03T06:45:11.572Z,3.58
2019-05-03T06:47:40.161Z,4.08
2019-05-03T06:50:06.160Z,3.50
2019-05-03T06:52:35.086Z,3.12
2019-05-03T06:55:06.313Z,3.00
2019-05-03T06:57:31.388Z,3.25
2019-05-03T07:00:08.992Z,4.20
2019-05-03T07:02:54.595Z,3.37
2019-05-03T07:05:25.125Z,2.98
2019-05-03T07:07:54.756Z,3.58
2019-05-03T07:10:24.930Z,3.22
2019-05-03T07:12:58.174Z,3.10
2019-05-03T07:17:52.571Z,2.72
2019-05-03T07:20:19.816Z,2.20
2019-05-03T07:22:47.330Z,1.80
2019-05-03T07:25:14.975Z,2.30
2019-05-03T07:27:42.308Z,2.58
2019-05-03T07:30:10.000Z,1.82
2019-05-03T07:32:38.173Z,1.55
2019-05-03T07:35:06.024Z,1.80
2019-05-03T07:37:34.853Z,1.40
2019-05-03T07:40:04.626Z,1.55
2019-05-03T07:42:31.449Z,1.40
2019-05-03T07:44:58.718Z,1.50
2019-05-03T07:47:25.945Z,1.40
2019-05-03T07:49:54.689Z,1.30
2019-05-03T07:52:22.028Z,1.20
2019-05-03T07:54:49.223Z,1.40
2019-05-03T07:57:25.429Z,1.30
2019-05-03T07:59:53.121Z,1.40
2019-05-03T08:02:20.353Z,1.45
2019-05-03T08:04:47.624Z,1.77
2019-05-03T08:07:22.322Z,2.00
2019-05-03T08:09:45.286Z,1.65
2019-05-03T08:12:12.568Z,1.57
2019-05-03T08:14:39.764Z,1.40
2019-05-03T08:17:07.273Z,1.62
2019-05-03T08:19:35.734Z,1.45
2019-05-03T08:22:04.861Z,1.72
2019-05-03T08:24:34.395Z,1.90
2019-05-03T08:27:01.248Z,2.77
2019-05-03T08:29:28.452Z,2.20
2019-05-03T08:31:57.293Z,1.85
2019-05-03T08:34:26.164Z,2.20
2019-05-03T08:37:01.113Z,2.45
2019-05-03T08:39:28.412Z,2.75
2019-05-03T08:41:57.610Z,2.62
2019-05-03T08:44:25.185Z,3.35
2019-05-03T08:46:52.492Z,3.70
2019-05-03T08:49:19.773Z,3.17
2019-05-03T08:51:47.037Z,2.55
2019-05-03T08:54:15.083Z,3.90
2019-05-03T08:56:42.342Z,2.65
2019-05-03T08:59:09.657Z,2.87
2019-05-03T09:01:39.403Z,1.87
2019-05-03T09:04:05.796Z,1.52
2019-05-03T09:06:35.370Z,1.45
2019-05-03T09:09:04.766Z,1.47
2019-05-03T09:11:34.827Z,1.20
2019-05-03T09:14:08.424Z,1.32
2019-05-03T09:16:35.702Z,1.42
2019-05-03T09:19:03.000Z,1.45
2019-05-03T09:21:30.276Z,1.10
2019-05-03T09:23:57.501Z,1.00
2019-05-03T09:26:28.976Z,1.07
2019-05-03T09:28:55.480Z,1.50
2019-05-03T09:31:24.511Z,1.67
2019-05-03T09:33:51.488Z,1.57
2019-05-03T09:36:19.045Z,1.32
2019-05-03T09:38:46.316Z,1.40
2019-05-03T09:41:15.083Z,0.93
2019-05-03T09:43:42.392Z,1.25
2019-05-03T09:46:09.624Z,0.95
2019-05-03T09:48:36.833Z,1.40
2019-05-03T09:51:05.157Z,1.42
2019-05-03T09:53:44.629Z,1.12
2019-05-03T09:56:11.953Z,1.00
2019-05-03T09:58:39.221Z,0.90
2019-05-03T10:01:08.592Z,0.80
2019-05-03T10:03:36.564Z,0.70
2019-05-03T10:06:04.493Z,0.60
2019-05-03T10:08:31.801Z,0.70
2019-05-03T10:11:11.695Z,0.80
2019-05-03T10:13:41.833Z,0.78
2019-05-03T10:16:08.617Z,0.90
2019-05-03T10:18:35.898Z,0.90
2019-05-03T10:21:05.318Z,1.07
2019-05-03T10:23:36.912Z,0.70
2019-05-03T10:26:05.102Z,0.50
2019-05-03T10:28:32.488Z,0.90
2019-05-03T10:30:59.841Z,0.93
2019-05-03T10:33:29.209Z,0.55
2019-05-03T10:35:56.521Z,0.62
2019-05-03T10:38:24.606Z,1.10
2019-05-03T10:40:52.194Z,1.70
2019-05-03T10:43:19.734Z,1.07
2019-05-03T10:45:46.996Z,0.75
2019-05-03T10:48:15.491Z,0.80
2019-05-03T10:50:42.976Z,1.30
2019-05-03T10:53:17.613Z,1.22
2019-05-03T10:55:46.564Z,1.30
2019-05-03T10:58:18.142Z,1.20
2019-05-03T11:00:52.740Z,1.30
2019-05-03T11:03:17.040Z,1.10
2019-05-03T11:05:45.422Z,0.72
2019-05-03T11:08:14.568Z,0.90
2019-05-03T11:10:42.317Z,0.90
2019-05-03T11:13:09.601Z,0.57
2019-05-03T11:15:36.815Z,0.90
2019-05-03T11:18:05.629Z,1.07
2019-05-03T11:20:34.602Z,1.07
2019-05-03T11:23:02.291Z,0.80
2019-05-03T11:25:29.884Z,0.62
2019-05-03T11:27:57.457Z,0.65
2019-05-03T11:30:24.742Z,0.50
2019-05-03T11:33:02.517Z,0.60
2019-05-03T11:35:35.107Z,0.70
2019-05-03T11:38:05.485Z,0.70
2019-05-03T11:40:34.585Z,0.57
2019-05-03T11:43:04.525Z,0.60
2019-05-03T11:45:31.352Z,0.78
2019-05-03T11:47:58.653Z,1.00
2019-05-03T11:50:25.961Z,1.00
2019-05-03T11:52:55.407Z,0.80
2019-05-03T11:55:22.270Z,1.30
2019-05-03T11:57:49.609Z,1.27
2019-05-03T12:00:18.545Z,1.40
2019-05-03T12:02:50.509Z,1.95
2019-05-03T12:05:24.503Z,1.10
2019-05-03T12:07:51.597Z,0.80
2019-05-03T12:10:32.341Z,1.23
2019-05-03T12:12:58.713Z,0.98
2019-05-03T12:15:26.022Z,1.05
2019-05-03T12:17:59.208Z,1.30
2019-05-03T12:20:28.681Z,1.15
2019-05-03T12:22:56.310Z,0.90
2019-05-03T12:25:26.146Z,0.70
2019-05-03T12:27:52.928Z,0.72
2019-05-03T12:30:20.229Z,0.90
2019-05-03T12:32:47.523Z,0.65
2019-05-03T12:35:15.446Z,1.13
2019-05-03T12:37:42.682Z,1.15
2019-05-03T12:40:11.628Z,1.27
2019-05-03T12:42:38.833Z,1.37
2019-05-03T12:45:06.104Z,1.00
2019-05-03T12:47:34.649Z,0.98
2019-05-03T12:50:02.066Z,1.25
2019-05-03T12:52:29.738Z,0.90
2019-05-03T12:54:57.457Z,1.10
2019-05-03T12:57:24.906Z,1.30
2019-05-03T13:00:09.916Z,0.93
2019-05-03T13:02:38.811Z,1.07
2019-05-03T13:05:06.656Z,1.40
2019-05-03T13:07:47.363Z,1.65
2019-05-03T13:10:21.666Z,1.43
2019-05-03T13:12:52.485Z,1.32
2019-05-03T13:15:14.454Z,1.40
2019-05-03T13:17:41.788Z,1.70
2019-05-03T13:20:15.004Z,1.20
2019-05-03T13:22:42.344Z,1.10
2019-05-03T13:25:09.663Z,1.37
2019-05-03T13:27:37.204Z,1.40
2019-05-03T13:30:06.389Z,1.10
2019-05-03T13:32:34.950Z,1.17
2019-05-03T13:35:02.256Z,0.95
2019-05-03T13:37:29.790Z,1.07
2019-05-03T13:39:57.201Z,1.27
2019-05-03T13:42:24.508Z,1.12
2019-05-03T13:44:51.798Z,1.50
2019-05-03T13:47:19.204Z,1.75
2019-05-03T13:49:46.474Z,1.42
2019-05-03T13:52:14.553Z,1.50
2019-05-03T13:54:42.022Z,1.40
2019-05-03T13:57:09.303Z,1.62
2019-05-03T13:59:36.573Z,1.30
2019-05-03T14:02:14.417Z,1.22
2019-05-03T14:04:35.801Z,1.07
2019-05-03T14:07:01.730Z,1.20
2019-05-03T14:09:29.130Z,0.98
2019-05-03T14:11:56.403Z,0.90
2019-05-03T14:14:25.705Z,2.60
2019-05-03T14:16:54.651Z,1.25
2019-05-03T14:19:25.180Z,1.22
2019-05-03T14:21:56.792Z,1.10
2019-05-03T14:24:24.607Z,1.05
2019-05-03T14:26:52.257Z,1.00
2019-05-03T14:29:19.485Z,1.30
2019-05-03T14:31:47.117Z,1.00
2019-05-03T14:34:16.943Z,1.35
2019-05-03T14:36:44.952Z,1.50
2019-05-03T14:39:14.856Z,1.05
2019-05-03T14:41:41.532Z,1.10
2019-05-03T14:44:08.842Z,1.30
2019-05-03T14:46:36.382Z,1.70
2019-05-03T14:49:05.501Z,1.62
2019-05-03T14:51:34.746Z,1.40
2019-05-03T14:54:01.674Z,1.22
2019-05-03T14:56:34.826Z,1.50
2019-05-03T15:01:48.776Z,1.80
2019-05-03T15:04:16.889Z,1.67
2019-05-03T15:06:46.050Z,1.65
2019-05-03T15:09:16.818Z,1.10
2019-05-03T15:11:42.378Z,1.80
2019-05-03T15:14:09.656Z,2.08
2019-05-03T15:16:36.928Z,1.32
2019-05-03T15:19:05.447Z,1.60
2019-05-03T15:21:34.546Z,1.50
2019-05-03T15:24:02.149Z,1.60
2019-05-03T15:26:29.547Z,1.67
2019-05-03T15:28:57.087Z,1.67
2019-05-03T15:31:24.639Z,1.35
2019-05-03T15:33:52.040Z,1.80
2019-05-03T15:36:19.310Z,1.62
2019-05-03T15:38:46.509Z,1.40
2019-05-03T15:41:14.707Z,1.05
2019-05-03T15:43:46.626Z,1.40
2019-05-03T15:46:25.172Z,1.20
2019-05-03T15:49:00.353Z,1.30
2019-05-03T15:51:27.630Z,1.30
2019-05-03T15:53:55.279Z,1.50
2019-05-03T15:56:22.589Z,1.65
2019-05-03T15:58:50.163Z,1.60
2019-05-03T16:01:17.453Z,1.20
2019-05-03T16:03:44.929Z,1.50
2019-05-03T16:06:12.522Z,1.10
2019-05-03T16:08:39.788Z,0.90
2019-05-03T16:11:07.190Z,1.12
2019-05-03T16:13:35.538Z,1.10
2019-05-03T16:16:04.349Z,1.40
2019-05-03T16:18:31.668Z,1.00
2019-05-03T16:20:59.853Z,1.10
2019-05-03T16:23:27.116Z,0.90
2019-05-03T16:25:54.631Z,1.00
2019-05-03T16:28:26.613Z,1.22
2019-05-03T16:30:55.743Z,1.50
2019-05-03T16:33:27.539Z,1.50
2019-05-03T16:35:52.174Z,1.40
2019-05-03T16:38:19.445Z,1.10
2019-05-03T16:40:46.665Z,1.10
2019-05-03T16:43:15.980Z,1.50
2019-05-03T16:45:44.450Z,1.95
2019-05-03T16:48:11.813Z,1.32
2019-05-03T16:50:40.252Z,1.00
2019-05-03T16:53:07.454Z,1.00
2019-05-03T16:55:35.216Z,1.30
2019-05-03T16:58:02.548Z,1.00
2019-05-03T17:00:29.877Z,1.35
2019-05-03T17:02:57.146Z,1.00
2019-05-03T17:05:26.060Z,1.40
2019-05-03T17:07:55.260Z,1.22
2019-05-03T17:10:25.524Z,1.50
2019-05-03T17:12:54.323Z,1.57
2019-05-03T17:15:22.081Z,1.15
2019-05-03T17:17:49.424Z,1.20
2019-05-03T17:20:16.800Z,1.03
2019-05-03T17:22:45.042Z,1.70
2019-05-03T17:25:12.520Z,1.30
2019-05-03T17:27:39.720Z,1.60
2019-05-03T17:30:06.941Z,1.07
2019-05-03T17:32:35.117Z,1.10
2019-05-03T17:35:02.409Z,1.00
2019-05-03T17:37:29.704Z,1.50
2019-05-03T17:40:07.632Z,1.65
2019-05-03T17:42:54.616Z,1.00
2019-05-03T17:45:25.341Z,1.17
2019-05-03T17:47:52.644Z,0.95
2019-05-03T17:50:19.854Z,1.05
2019-05-03T17:52:48.782Z,1.22
2019-05-03T17:55:20.596Z,1.60
2019-05-03T17:58:01.391Z,2.10
2019-05-03T18:00:30.342Z,1.60
2019-05-03T18:02:57.693Z,1.40
2019-05-03T18:05:44.816Z,1.00
2019-05-03T18:08:28.976Z,1.30
2019-05-03T18:10:58.050Z,1.95
2019-05-03T18:13:25.393Z,1.30
2019-05-03T18:15:54.236Z,1.20
2019-05-03T18:18:21.970Z,1.90
2019-05-03T18:20:49.243Z,1.40
2019-05-03T18:23:16.444Z,1.70
2019-05-03T18:25:44.671Z,1.70
2019-05-03T18:28:12.279Z,1.20
2019-05-03T18:30:39.541Z,1.40
2019-05-03T18:33:06.764Z,1.75
2019-05-03T18:35:34.038Z,1.07
2019-05-03T18:38:01.237Z,1.37
2019-05-03T18:40:29.652Z,1.50
2019-05-03T18:43:04.700Z,1.60
2019-05-03T18:45:49.732Z,1.95
2019-05-03T18:48:17.197Z,1.65
2019-05-03T18:50:45.592Z,1.37
2019-05-03T18:53:15.271Z,1.30
2019-05-03T18:55:44.334Z,0.85
2019-05-03T18:58:12.348Z,1.00
2019-05-03T19:00:39.828Z,0.80
2019-05-03T19:03:07.029Z,1.00
2019-05-03T19:05:35.877Z,1.50
2019-05-03T19:08:07.606Z,1.70
2019-05-03T19:10:36.540Z,1.17
2019-05-03T19:13:05.437Z,1.12
2019-05-03T19:15:34.630Z,1.00
2019-05-03T19:18:04.359Z,0.90
2019-05-03T19:20:31.688Z,0.80
2019-05-03T19:22:58.978Z,0.70
2019-05-03T19:25:26.285Z,0.50
2019-05-03T19:27:54.539Z,0.62
2019-05-03T19:30:24.306Z,0.70
2019-05-03T19:32:51.076Z,0.53
2019-05-03T19:35:18.338Z,0.70
2019-05-03T19:37:46.632Z,0.50
2019-05-03T19:40:14.069Z,0.55
2019-05-03T19:42:41.340Z,0.50
2019-05-03T19:45:08.689Z,0.68
2019-05-03T19:47:36.161Z,0.55
2019-05-03T19:50:05.052Z,1.30
2019-05-03T19:52:34.344Z,0.90
2019-05-03T19:55:04.877Z,1.90
2019-05-03T19:57:36.488Z,1.60
2019-05-03T20:00:05.616Z,1.50
2019-05-03T20:02:50.396Z,1.62
2019-05-03T20:05:36.027Z,1.90
2019-05-03T20:08:21.105Z,1.98
2019-05-03T20:10:48.381Z,1.25
2019-05-03T20:13:15.644Z,1.50
2019-05-03T20:15:45.044Z,1.10
2019-05-03T20:18:12.161Z,0.60
2019-05-03T20:20:39.452Z,0.70
2019-05-03T20:23:06.916Z,0.60
2019-05-03T20:25:35.159Z,0.60
2019-05-03T20:28:02.513Z,0.60
2019-05-03T20:30:29.867Z,0.50
2019-05-03T20:32:57.145Z,0.35
2019-05-03T20:35:25.204Z,0.50
2019-05-03T20:37:52.629Z,0.55
2019-05-03T20:40:19.900Z,0.37
2019-05-03T20:42:48.804Z,0.60
2019-05-03T20:45:17.766Z,0.60
2019-05-03T20:47:49.665Z,0.50
2019-05-03T20:50:17.728Z,0.57
2019-05-03T20:52:45.504Z,0.60
2019-05-03T20:55:15.327Z,0.57
2019-05-03T20:57:41.857Z,0.82
2019-05-03T21:00:09.317Z,0.50
2019-05-03T21:02:36.676Z,0.80
2019-05-03T21:05:07.113Z,0.60
2019-05-03T21:07:35.176Z,0.65
2019-05-03T21:10:02.585Z,0.62
2019-05-03T21:12:31.455Z,0.72
2019-05-03T21:14:58.788Z,0.80
2019-05-03T21:17:27.880Z,0.90
2019-05-03T21:19:59.460Z,0.90
2019-05-03T21:22:28.017Z,0.60
2019-05-03T21:24:56.848Z,0.65
2019-05-03T21:27:24.688Z,0.60
2019-05-03T21:29:54.819Z,0.62
2019-05-03T21:32:21.597Z,0.65
2019-05-03T21:34:49.153Z,0.70
2019-05-03T21:37:16.477Z,0.60
2019-05-03T21:39:45.427Z,1.17
2019-05-03T21:42:12.721Z,0.68
2019-05-03T21:44:40.164Z,0.80
2019-05-03T21:47:17.889Z,0.68
2019-05-03T21:49:49.616Z,0.72
2019-05-03T21:52:16.824Z,1.00
2019-05-03T21:54:45.081Z,0.70
2019-05-03T21:57:14.241Z,0.70
2019-05-03T21:59:41.386Z,0.80
2019-05-03T22:02:08.650Z,0.65
2019-05-03T22:04:35.878Z,0.88
2019-05-03T22:07:05.107Z,0.90
2019-05-03T22:09:32.159Z,0.78
2019-05-03T22:11:59.413Z,1.00
2019-05-03T22:14:28.243Z,0.75
2019-05-03T22:16:57.076Z,0.70
2019-05-03T22:19:25.040Z,0.60
2019-05-03T22:21:56.547Z,0.55
2019-05-03T22:24:25.452Z,0.50
2019-05-03T22:27:06.973Z,0.60
2019-05-03T22:29:35.663Z,0.40
2019-05-03T22:32:05.136Z,0.40
2019-05-03T22:34:31.996Z,0.50
2019-05-03T22:36:59.197Z,0.75
2019-05-03T22:39:26.466Z,0.80
2019-05-03T22:41:53.769Z,0.80
2019-05-03T22:44:21.329Z,0.90
2019-05-03T22:46:48.523Z,0.60
2019-05-03T22:49:16.009Z,0.70
2019-05-03T22:51:44.998Z,0.80
2019-05-03T22:54:12.145Z,0.78
2019-05-03T22:56:39.341Z,0.60
2019-05-03T22:59:06.564Z,0.78
2019-05-03T23:01:35.257Z,0.57
2019-05-03T23:04:02.661Z,0.50
2019-05-03T23:06:29.861Z,0.50
2019-05-03T23:08:57.152Z,0.50
2019-05-03T23:11:24.585Z,0.60
2019-05-03T23:14:04.968Z,0.50
2019-05-03T23:16:32.997Z,0.80
2019-05-03T23:19:00.292Z,0.42
2019-05-03T23:21:29.194Z,0.82
2019-05-03T23:23:56.417Z,1.10
2019-05-03T23:26:25.407Z,0.88
2019-05-03T23:28:52.755Z,0.93
2019-05-03T23:31:19.988Z,1.00
2019-05-03T23:33:47.244Z,1.10
2019-05-03T23:36:15.397Z,1.00
2019-05-03T23:38:44.731Z,1.12
2019-05-03T23:41:11.968Z,1.05
2019-05-03T23:43:39.164Z,0.88
2019-05-03T23:46:06.554Z,0.95
2019-05-03T23:48:35.084Z,0.65
2019-05-03T23:51:04.521Z,0.78
2019-05-03T23:53:31.272Z,0.50
2019-05-03T23:56:00.388Z,0.60
2019-05-03T23:58:27.584Z,1.32
